createdAt,value
2023-04-18T00:00:10.790Z,17.17
2023-04-18T00:02:40.154Z,16.60
2023-04-18T00:05:07.817Z,15.90
2023-04-18T00:07:35.601Z,16.60
2023-04-18T00:10:03.810Z,16.10
2023-04-18T00:12:34.344Z,16.47
2023-04-18T00:15:02.737Z,16.43
2023-04-18T00:18:19.513Z,15.83
2023-04-18T00:20:46.390Z,15.33
2023-04-18T00:23:14.033Z,16.33
2023-04-18T00:25:43.482Z,15.77
2023-04-18T00:28:10.407Z,16.00
2023-04-18T00:30:37.286Z,15.17
2023-04-18T00:33:04.565Z,15.23
2023-04-18T00:35:33.514Z,15.60
2023-04-18T00:38:00.251Z,15.87
2023-04-18T00:40:27.034Z,14.93
2023-04-18T00:42:53.810Z,14.83
2023-04-18T00:45:20.681Z,15.57
2023-04-18T00:47:47.535Z,14.63
2023-04-18T00:50:16.567Z,15.67
2023-04-18T00:52:44.083Z,14.80
2023-04-18T00:55:10.954Z,15.00
2023-04-18T00:57:37.699Z,15.07
2023-04-18T01:00:10.598Z,14.90
2023-04-18T01:02:37.897Z,15.17
2023-04-18T01:05:08.030Z,14.53
2023-04-18T01:07:37.326Z,15.30
2023-04-18T01:10:04.478Z,15.30
2023-04-18T01:12:33.521Z,15.37
2023-04-18T01:15:03.922Z,14.53
2023-04-18T01:17:35.542Z,15.60
2023-04-18T01:23:43.366Z,14.17
2023-04-18T01:26:12.299Z,14.30
2023-04-18T01:28:39.063Z,14.60
2023-04-18T01:31:06.061Z,14.27
2023-04-18T01:33:35.384Z,15.90
2023-04-18T01:36:04.499Z,15.07
2023-04-18T01:38:31.273Z,15.33
2023-04-18T01:40:57.998Z,14.77
2023-04-18T01:43:24.750Z,14.60
2023-04-18T01:45:53.797Z,14.67
2023-04-18T01:48:23.047Z,15.00
2023-04-18T01:50:49.804Z,14.60
2023-04-18T01:53:20.998Z,14.83
2023-04-18T01:55:52.337Z,15.40
2023-04-18T01:58:23.163Z,15.33
2023-04-18T02:00:53.843Z,15.30
2023-04-18T02:03:21.079Z,14.70
2023-04-18T02:05:50.343Z,15.23
2023-04-18T02:08:17.206Z,14.30
2023-04-18T02:10:44.150Z,16.17
2023-04-18T02:13:11.099Z,16.47
2023-04-18T02:15:37.954Z,15.77
2023-04-18T02:18:04.768Z,16.63
2023-04-18T02:20:36.706Z,15.50
2023-04-18T02:23:03.921Z,16.63
2023-04-18T02:25:30.879Z,16.00
2023-04-18T02:27:59.910Z,16.70
2023-04-18T02:30:26.815Z,16.30
2023-04-18T02:32:54.486Z,16.30
2023-04-18T02:35:23.420Z,16.60
2023-04-18T02:37:50.451Z,17.83
2023-04-18T02:40:19.542Z,15.70
2023-04-18T02:42:46.854Z,16.93
2023-04-18T02:45:16.092Z,16.87
2023-04-18T02:47:51.776Z,17.33
2023-04-18T02:50:21.062Z,16.73
2023-04-18T02:52:47.877Z,17.67
2023-04-18T02:55:17.183Z,17.83
2023-04-18T02:57:46.378Z,18.40
2023-04-18T03:00:16.374Z,18.37
2023-04-18T03:02:43.351Z,17.40
2023-04-18T03:05:10.278Z,17.90
2023-04-18T03:07:39.226Z,19.00
2023-04-18T03:10:06.370Z,18.20
2023-04-18T03:12:33.178Z,18.03
2023-04-18T03:14:59.916Z,18.73
2023-04-18T03:17:26.741Z,19.23
2023-04-18T03:19:53.540Z,19.50
2023-04-18T03:22:20.571Z,18.87
2023-04-18T03:24:47.310Z,18.33
2023-04-18T03:27:16.518Z,19.10
2023-04-18T03:29:43.255Z,18.60
2023-04-18T03:32:10.022Z,18.67
2023-04-18T03:34:36.917Z,19.50
2023-04-18T03:37:03.674Z,18.37
2023-04-18T03:39:32.646Z,18.77
2023-04-18T03:41:59.400Z,18.07
2023-04-18T03:44:26.197Z,18.70
2023-04-18T03:46:59.737Z,19.23
2023-04-18T03:49:26.479Z,17.90
2023-04-18T03:51:53.292Z,17.63
2023-04-18T03:54:20.082Z,18.30
2023-04-18T03:56:46.865Z,17.43
2023-04-18T03:59:13.726Z,17.40
2023-04-18T04:01:40.519Z,17.50
2023-04-18T04:04:09.208Z,17.80
2023-04-18T04:06:36.489Z,18.30
2023-04-18T04:09:05.516Z,18.33
2023-04-18T04:11:32.276Z,18.30
2023-04-18T04:13:59.032Z,18.47
2023-04-18T04:16:28.522Z,17.63
2023-04-18T04:18:55.333Z,18.63
2023-04-18T04:21:22.121Z,17.33
2023-04-18T04:23:49.012Z,18.50
2023-04-18T04:26:15.983Z,16.53
2023-04-18T04:28:46.429Z,18.07
2023-04-18T04:31:13.303Z,17.27
2023-04-18T04:33:41.125Z,17.63
2023-04-18T04:36:08.991Z,16.77
2023-04-18T04:38:38.505Z,17.13
2023-04-18T04:41:07.904Z,18.70
2023-04-18T04:43:34.938Z,17.53
2023-04-18T04:46:04.517Z,16.93
2023-04-18T04:48:31.375Z,16.70
2023-04-18T04:51:01.038Z,18.13
2023-04-18T04:53:32.118Z,17.23
2023-04-18T04:56:00.961Z,18.50
2023-04-18T04:58:27.924Z,17.60
2023-04-18T05:00:57.290Z,18.37
2023-04-18T05:03:24.266Z,17.90
2023-04-18T05:05:55.830Z,17.93
2023-04-18T05:08:22.608Z,18.53
2023-04-18T05:10:50.137Z,17.23
2023-04-18T05:13:16.961Z,18.37
2023-04-18T05:15:48.291Z,17.60
2023-04-18T05:18:15.102Z,17.23
2023-04-18T05:20:44.078Z,18.37
2023-04-18T05:23:13.148Z,17.77
2023-04-18T05:25:39.941Z,17.63
2023-04-18T05:28:08.360Z,17.40
2023-04-18T05:30:35.147Z,18.03
2023-04-18T05:33:01.963Z,17.27
2023-04-18T05:35:28.795Z,17.17
2023-04-18T05:37:55.560Z,18.03
2023-04-18T05:40:22.340Z,16.67
2023-04-18T05:42:49.175Z,18.43
2023-04-18T05:45:16.130Z,17.83
2023-04-18T05:47:43.032Z,17.10
2023-04-18T05:50:12.360Z,17.77
2023-04-18T05:52:39.268Z,16.70
2023-04-18T05:55:06.600Z,17.83
2023-04-18T05:57:33.472Z,17.83
2023-04-18T06:00:02.531Z,17.77
2023-04-18T06:02:29.462Z,17.57
2023-04-18T06:04:56.831Z,17.67
2023-04-18T06:07:25.525Z,17.63
2023-04-18T06:09:54.023Z,17.40
2023-04-18T06:12:25.427Z,17.87
2023-04-18T06:14:52.212Z,17.73
2023-04-18T06:17:19.255Z,18.10
2023-04-18T06:19:46.006Z,16.57
2023-04-18T06:22:12.800Z,17.93
2023-04-18T06:24:39.579Z,17.33
2023-04-18T06:27:07.386Z,17.27
2023-04-18T06:29:38.691Z,17.83
2023-04-18T06:32:10.493Z,16.60
2023-04-18T06:34:40.668Z,16.57
2023-04-18T06:37:09.993Z,17.03
2023-04-18T06:39:36.747Z,17.47
2023-04-18T06:42:05.878Z,17.27
2023-04-18T06:44:32.712Z,16.73
2023-04-18T06:47:02.136Z,16.77
2023-04-18T06:49:28.927Z,16.13
2023-04-18T06:51:57.888Z,16.53
2023-04-18T06:54:24.704Z,17.00
2023-04-18T06:56:52.228Z,16.53
2023-04-18T06:59:21.428Z,17.50
2023-04-18T07:01:50.800Z,17.27
2023-04-18T07:04:20.043Z,16.33
2023-04-18T07:06:47.089Z,16.17
2023-04-18T07:09:16.140Z,17.43
2023-04-18T07:11:43.010Z,16.20
2023-04-18T07:14:14.609Z,15.73
2023-04-18T07:16:42.012Z,17.17
2023-04-18T07:19:08.782Z,17.03
2023-04-18T07:21:35.605Z,16.83
2023-04-18T07:24:02.368Z,16.57
2023-04-18T07:26:31.656Z,16.37
2023-04-18T07:29:00.610Z,16.37
2023-04-18T07:31:28.654Z,17.30
2023-04-18T07:33:55.743Z,15.93
2023-04-18T07:36:27.918Z,16.93
2023-04-18T07:38:54.705Z,16.00
2023-04-18T07:41:24.018Z,16.70
2023-04-18T07:43:53.297Z,16.20
2023-04-18T07:46:20.129Z,15.03
2023-04-18T07:48:49.047Z,16.13
2023-04-18T07:51:17.965Z,15.93
2023-04-18T07:53:44.816Z,15.73
2023-04-18T07:56:12.748Z,15.63
2023-04-18T07:58:39.540Z,15.97
2023-04-18T08:01:13.454Z,16.17
2023-04-18T08:03:40.463Z,16.83
2023-04-18T08:06:10.009Z,17.30
2023-04-18T08:08:36.812Z,16.93
2023-04-18T08:11:05.796Z,16.33
2023-04-18T08:13:32.642Z,16.53
2023-04-18T08:16:00.033Z,16.60
2023-04-18T08:18:26.986Z,16.20
2023-04-18T08:20:53.854Z,15.00
2023-04-18T08:23:22.921Z,16.03
2023-04-18T08:25:56.825Z,15.47
2023-04-18T08:28:23.627Z,15.20
2023-04-18T08:30:51.360Z,16.57
2023-04-18T08:33:18.833Z,15.60
2023-04-18T08:35:46.012Z,16.40
2023-04-18T08:38:15.073Z,15.30
2023-04-18T08:40:42.987Z,15.53
2023-04-18T08:43:12.586Z,14.37
2023-04-18T08:45:40.214Z,15.20
2023-04-18T08:48:09.444Z,14.53
2023-04-18T08:50:36.249Z,15.37
2023-04-18T08:53:03.217Z,16.10
2023-04-18T08:55:33.731Z,16.27
2023-04-18T08:58:01.392Z,15.23
2023-04-18T09:00:29.318Z,16.23
2023-04-18T09:02:59.364Z,16.40
2023-04-18T09:05:33.701Z,14.70
2023-04-18T09:08:08.586Z,15.53
2023-04-18T09:10:38.356Z,14.17
2023-04-18T09:13:05.598Z,13.67
2023-04-18T09:15:32.486Z,13.27
2023-04-18T09:18:03.496Z,14.33
2023-04-18T09:20:43.977Z,13.37
2023-04-18T09:23:14.408Z,11.87
2023-04-18T09:25:48.507Z,12.00
2023-04-18T09:28:25.280Z,11.33
2023-04-18T09:30:52.746Z,12.10
2023-04-18T09:33:28.334Z,12.37
2023-04-18T09:35:56.527Z,11.50
2023-04-18T09:38:41.893Z,11.73
2023-04-18T09:41:12.114Z,12.47
2023-04-18T09:43:41.542Z,11.80
2023-04-18T09:46:08.825Z,12.87
2023-04-18T09:48:35.852Z,12.93
2023-04-18T09:51:17.486Z,11.90
2023-04-18T09:53:45.072Z,10.93
2023-04-18T09:56:28.125Z,11.00
2023-04-18T09:59:10.250Z,10.80
2023-04-18T10:01:40.091Z,10.53
2023-04-18T10:04:13.270Z,10.93
2023-04-18T10:06:42.152Z,10.30
2023-04-18T10:09:12.060Z,10.37
2023-04-18T10:11:38.982Z,10.87
2023-04-18T10:14:08.015Z,10.47
2023-04-18T10:16:36.298Z,10.50
2023-04-18T10:19:22.841Z,9.90
2023-04-18T10:21:57.046Z,8.87
2023-04-18T10:24:49.688Z,9.47
2023-04-18T10:27:17.755Z,9.47
2023-04-18T10:29:51.429Z,9.30
2023-04-18T10:32:26.934Z,8.50
2023-04-18T10:34:56.256Z,8.90
2023-04-18T10:37:22.974Z,8.57
2023-04-18T10:40:00.371Z,8.33
2023-04-18T10:42:57.607Z,8.03
2023-04-18T10:45:24.989Z,8.47
2023-04-18T10:47:55.580Z,8.00
2023-04-18T10:50:23.163Z,7.80
2023-04-18T10:52:52.246Z,7.57
2023-04-18T10:55:28.941Z,7.87
2023-04-18T10:57:56.526Z,7.40
2023-04-18T11:00:23.535Z,7.40
2023-04-18T11:02:52.196Z,7.10
2023-04-18T11:05:20.414Z,7.43
2023-04-18T11:07:49.298Z,7.23
2023-04-18T11:10:36.516Z,8.17
2023-04-18T11:13:05.522Z,7.80
2023-04-18T11:15:32.282Z,8.27
2023-04-18T11:18:01.110Z,8.40
2023-04-18T11:20:31.034Z,8.50
2023-04-18T11:22:59.040Z,9.07
2023-04-18T11:25:31.988Z,8.73
2023-04-18T11:27:59.768Z,7.97
2023-04-18T11:30:26.664Z,9.77
2023-04-18T11:32:54.300Z,9.13
2023-04-18T11:35:24.225Z,9.47
2023-04-18T11:37:51.342Z,10.40
2023-04-18T11:40:18.345Z,11.07
2023-04-18T11:42:45.290Z,10.13
2023-04-18T11:45:15.416Z,10.57
2023-04-18T11:47:43.223Z,10.70
2023-04-18T11:50:11.536Z,10.97
2023-04-18T11:52:39.899Z,10.90
2023-04-18T11:55:15.052Z,10.93
2023-04-18T11:57:42.075Z,11.23
2023-04-18T12:00:12.718Z,10.80
2023-04-18T12:02:43.709Z,10.13
2023-04-18T12:05:12.003Z,11.23
2023-04-18T12:07:43.002Z,11.00
2023-04-18T12:10:19.789Z,10.60
2023-04-18T12:12:53.997Z,10.93
2023-04-18T12:15:25.260Z,11.20
2023-04-18T12:17:52.478Z,10.80
2023-04-18T12:20:20.084Z,9.70
2023-04-18T12:22:49.577Z,10.60
2023-04-18T12:25:27.910Z,11.07
2023-04-18T12:28:03.641Z,10.83
2023-04-18T12:30:37.346Z,11.20
2023-04-18T12:33:04.887Z,10.90
2023-04-18T12:35:31.994Z,10.53
2023-04-18T12:38:00.004Z,10.07
2023-04-18T12:40:27.065Z,10.17
2023-04-18T12:42:56.339Z,10.73
2023-04-18T12:45:23.365Z,10.00
2023-04-18T12:47:52.974Z,9.77
2023-04-18T12:50:27.418Z,9.43
2023-04-18T12:52:54.863Z,10.13
2023-04-18T12:55:26.455Z,9.77
2023-04-18T12:57:58.165Z,9.57
2023-04-18T13:00:27.632Z,9.00
2023-04-18T13:02:54.650Z,9.83
2023-04-18T13:05:22.954Z,9.90
2023-04-18T13:07:49.892Z,9.27
2023-04-18T13:10:22.918Z,9.30
2023-04-18T13:12:50.090Z,8.57
2023-04-18T13:15:17.503Z,8.87
2023-04-18T13:17:44.450Z,9.30
2023-04-18T13:20:15.091Z,8.57
2023-04-18T13:22:44.953Z,9.13
2023-04-18T13:25:11.746Z,8.90
2023-04-18T13:27:41.820Z,9.00
2023-04-18T13:30:10.664Z,8.63
2023-04-18T13:32:40.462Z,9.33
2023-04-18T13:35:08.926Z,9.23
2023-04-18T13:37:36.139Z,9.00
2023-04-18T13:40:06.978Z,8.97
2023-04-18T13:42:34.190Z,8.33
2023-04-18T13:45:00.926Z,8.90
2023-04-18T13:47:27.965Z,8.27
2023-04-18T13:49:54.781Z,7.87
2023-04-18T13:52:23.645Z,8.23
2023-04-18T13:54:55.162Z,8.40
2023-04-18T13:57:23.126Z,8.10
2023-04-18T13:59:49.986Z,7.80
2023-04-18T14:02:18.996Z,8.73
2023-04-18T14:04:46.563Z,8.40
2023-04-18T14:07:15.574Z,7.97
2023-04-18T14:09:42.336Z,7.67
2023-04-18T14:12:14.022Z,7.70
2023-04-18T14:14:40.798Z,6.90
2023-04-18T14:17:08.366Z,7.20
2023-04-18T14:19:35.290Z,7.07
2023-04-18T14:22:04.262Z,6.57
2023-04-18T14:24:31.007Z,6.93
2023-04-18T14:26:58.380Z,6.93
2023-04-18T14:29:25.312Z,7.03
2023-04-18T14:31:52.061Z,6.57
2023-04-18T14:34:18.806Z,6.60
2023-04-18T14:36:45.680Z,6.57
2023-04-18T14:39:13.247Z,6.30
2023-04-18T14:41:45.933Z,6.47
2023-04-18T14:44:15.418Z,6.80
2023-04-18T14:46:42.706Z,5.77
2023-04-18T14:49:09.599Z,5.87
2023-04-18T14:51:36.348Z,5.60
2023-04-18T14:54:03.135Z,6.27
2023-04-18T14:56:29.846Z,5.77
2023-04-18T14:58:56.625Z,6.20
2023-04-18T15:01:23.385Z,6.47
2023-04-18T15:03:53.210Z,6.03
2023-04-18T15:06:20.150Z,6.20
2023-04-18T15:08:47.232Z,5.93
2023-04-18T15:11:14.046Z,5.63
2023-04-18T15:13:42.974Z,5.50
2023-04-18T15:16:09.895Z,5.50
2023-04-18T15:18:39.237Z,6.27
2023-04-18T15:21:06.194Z,6.07
2023-04-18T15:23:34.162Z,5.07
2023-04-18T15:26:01.034Z,5.53
2023-04-18T15:28:27.875Z,5.50
2023-04-18T15:30:54.761Z,5.23
2023-04-18T15:33:21.881Z,5.57
2023-04-18T15:35:50.868Z,5.77
2023-04-18T15:38:17.594Z,5.60
2023-04-18T15:40:47.053Z,5.87
2023-04-18T15:43:17.355Z,5.73
2023-04-18T15:45:44.677Z,5.43
2023-04-18T15:48:13.116Z,5.17
2023-04-18T15:50:40.430Z,5.10
2023-04-18T15:53:07.235Z,5.23
2023-04-18T15:55:38.679Z,4.97
2023-04-18T15:58:07.672Z,4.60
2023-04-18T16:00:39.963Z,4.50
2023-04-18T16:03:11.523Z,4.83
2023-04-18T16:05:38.412Z,4.67
2023-04-18T16:08:05.579Z,4.20
2023-04-18T16:10:32.376Z,4.60
2023-04-18T16:12:59.545Z,4.10
2023-04-18T16:15:26.389Z,3.73
2023-04-18T16:17:55.649Z,3.93
2023-04-18T16:20:22.474Z,4.23
2023-04-18T16:22:51.417Z,4.60
2023-04-18T16:25:18.972Z,4.43
2023-04-18T16:27:46.103Z,4.03
2023-04-18T16:30:13.284Z,3.77
2023-04-18T16:32:40.161Z,4.00
2023-04-18T16:35:10.224Z,4.43
2023-04-18T16:37:42.184Z,4.17
2023-04-18T16:40:10.126Z,4.43
2023-04-18T16:42:37.068Z,4.20
2023-04-18T16:45:04.169Z,4.50
2023-04-18T16:47:31.040Z,4.67
2023-04-18T16:49:57.864Z,4.50
2023-04-18T16:52:24.656Z,4.97
2023-04-18T16:54:52.610Z,5.00
2023-04-18T16:57:22.024Z,5.00
2023-04-18T16:59:51.336Z,4.60
2023-04-18T17:02:18.184Z,4.43
2023-04-18T17:04:45.084Z,4.23
2023-04-18T17:07:11.921Z,4.83
2023-04-18T17:09:41.420Z,5.07
2023-04-18T17:12:12.860Z,4.37
2023-04-18T17:14:39.647Z,4.63
2023-04-18T17:17:06.391Z,4.30
2023-04-18T17:19:33.175Z,5.07
2023-04-18T17:22:00.312Z,5.00
2023-04-18T17:24:29.656Z,4.70
2023-04-18T17:26:58.662Z,4.70
2023-04-18T17:29:28.079Z,4.80
2023-04-18T17:31:54.840Z,4.43
2023-04-18T17:34:23.831Z,4.83
2023-04-18T17:36:50.645Z,4.67
2023-04-18T17:39:19.556Z,5.13
2023-04-18T17:41:48.438Z,4.60
2023-04-18T17:44:15.244Z,5.30
2023-04-18T17:46:41.994Z,5.00
2023-04-18T17:49:08.845Z,5.17
2023-04-18T17:51:35.612Z,5.23
2023-04-18T17:54:02.413Z,5.57
2023-04-18T17:56:30.547Z,4.70
2023-04-18T17:58:57.397Z,4.80
2023-04-18T18:01:28.832Z,5.67
2023-04-18T18:03:58.436Z,5.73
2023-04-18T18:06:27.889Z,5.20
2023-04-18T18:08:57.164Z,5.00
2023-04-18T18:11:23.992Z,5.10
2023-04-18T18:13:54.559Z,5.37
2023-04-18T18:16:23.063Z,5.77
2023-04-18T18:18:50.963Z,5.37
2023-04-18T18:21:18.220Z,5.67
2023-04-18T18:23:44.951Z,5.70
2023-04-18T18:26:12.296Z,5.67
2023-04-18T18:28:39.074Z,5.90
2023-04-18T18:31:05.877Z,6.00
2023-04-18T18:33:32.673Z,5.93
2023-04-18T18:36:01.984Z,6.10
2023-04-18T18:38:28.754Z,5.83
2023-04-18T18:40:57.990Z,5.83
2023-04-18T18:43:26.322Z,5.70
2023-04-18T18:45:55.711Z,5.57
2023-04-18T18:48:24.963Z,5.83
2023-04-18T18:50:51.903Z,6.67
2023-04-18T18:53:18.730Z,5.57
2023-04-18T18:55:47.727Z,6.00
2023-04-18T18:58:16.523Z,6.03
2023-04-18T19:00:43.331Z,5.20
2023-04-18T19:03:12.800Z,5.83
2023-04-18T19:05:39.654Z,5.90
2023-04-18T19:08:09.404Z,6.17
2023-04-18T19:10:36.218Z,6.00
2023-04-18T19:13:05.644Z,6.60
2023-04-18T19:15:32.384Z,5.87
2023-04-18T19:17:59.125Z,6.27
2023-04-18T19:20:29.230Z,5.60
2023-04-18T19:22:56.087Z,5.67
2023-04-18T19:25:22.992Z,6.27
2023-04-18T19:27:52.297Z,6.20
2023-04-18T19:30:19.119Z,5.97
2023-04-18T19:32:46.807Z,5.87
2023-04-18T19:35:13.798Z,6.17
2023-04-18T19:37:40.626Z,6.00
2023-04-18T19:40:10.588Z,6.63
2023-04-18T19:42:39.394Z,5.43
2023-04-18T19:45:06.870Z,5.90
2023-04-18T19:47:34.076Z,5.80
2023-04-18T19:50:01.309Z,5.50
2023-04-18T19:52:30.382Z,5.53
2023-04-18T19:54:57.198Z,5.67
2023-04-18T19:57:25.693Z,5.07
2023-04-18T19:59:52.445Z,5.80
2023-04-18T20:02:21.753Z,5.37
2023-04-18T20:04:48.651Z,5.40
2023-04-18T20:07:15.850Z,5.23
2023-04-18T20:09:42.605Z,4.97
2023-04-18T20:12:09.417Z,5.50
2023-04-18T20:14:38.700Z,5.60
2023-04-18T20:17:08.054Z,5.83
2023-04-18T20:19:34.836Z,5.63
2023-04-18T20:22:04.132Z,5.87
2023-04-18T20:24:34.691Z,5.30
2023-04-18T20:27:04.172Z,5.70
2023-04-18T20:29:31.339Z,5.40
2023-04-18T20:31:58.162Z,5.23
2023-04-18T20:34:24.949Z,5.60
2023-04-18T20:36:54.113Z,5.20
2023-04-18T20:39:23.060Z,5.60
2023-04-18T20:41:53.885Z,6.00
2023-04-18T20:44:24.945Z,5.90
2023-04-18T20:46:53.816Z,5.37
2023-04-18T20:49:22.856Z,5.47
2023-04-18T20:51:51.918Z,6.30
2023-04-18T20:54:18.870Z,5.93
2023-04-18T20:56:45.864Z,6.37
2023-04-18T20:59:12.657Z,6.03
2023-04-18T21:01:42.071Z,6.20
2023-04-18T21:04:08.980Z,6.20
2023-04-18T21:06:38.425Z,6.50
2023-04-18T21:09:07.589Z,6.30
2023-04-18T21:11:39.151Z,6.07
2023-04-18T21:14:06.813Z,6.47
2023-04-18T21:16:33.909Z,6.47
2023-04-18T21:19:00.702Z,6.50
2023-04-18T21:21:29.968Z,5.87
2023-04-18T21:23:56.725Z,7.00
2023-04-18T21:26:23.506Z,6.83
2023-04-18T21:29:02.554Z,6.80
2023-04-18T21:31:35.715Z,6.63
2023-04-18T21:34:05.508Z,6.47
2023-04-18T21:36:32.419Z,6.43
2023-04-18T21:39:02.284Z,6.20
2023-04-18T21:41:29.161Z,6.77
2023-04-18T21:43:58.354Z,6.57
2023-04-18T21:46:25.345Z,7.40
2023-04-18T21:48:52.125Z,6.87
2023-04-18T21:51:18.938Z,6.70
2023-04-18T21:53:45.711Z,6.47
2023-04-18T21:56:12.493Z,6.73
2023-04-18T21:58:39.534Z,6.83
2023-04-18T22:01:06.350Z,6.40
2023-04-18T22:03:35.935Z,6.53
2023-04-18T22:06:05.549Z,6.87
2023-04-18T22:08:32.583Z,6.77
2023-04-18T22:11:04.899Z,6.60
2023-04-18T22:13:33.221Z,6.80
2023-04-18T22:16:03.560Z,6.77
2023-04-18T22:18:33.683Z,7.53
2023-04-18T22:21:02.372Z,6.23
2023-04-18T22:23:31.838Z,6.30
2023-04-18T22:26:00.793Z,6.67
2023-04-18T22:28:30.307Z,6.57
2023-04-18T22:30:57.199Z,6.47
2023-04-18T22:33:28.674Z,6.13
2023-04-18T22:35:55.765Z,6.37
2023-04-18T22:38:22.515Z,6.50
2023-04-18T22:40:51.921Z,6.10
2023-04-18T22:43:23.560Z,6.13
2023-04-18T22:45:51.037Z,5.80
2023-04-18T22:48:17.822Z,6.10
2023-04-18T22:50:50.047Z,6.10
2023-04-18T22:53:16.929Z,6.27
2023-04-18T22:55:44.239Z,6.20
2023-04-18T22:58:13.541Z,5.60
2023-04-18T23:00:40.468Z,6.20
2023-04-18T23:03:07.311Z,5.80
2023-04-18T23:05:34.466Z,5.93
2023-04-18T23:08:01.292Z,5.80
2023-04-18T23:10:28.276Z,5.87
2023-04-18T23:12:55.087Z,5.97
2023-04-18T23:15:24.665Z,5.97
2023-04-18T23:17:52.990Z,5.03
2023-04-18T23:20:20.546Z,5.70
2023-04-18T23:22:50.024Z,5.40
2023-04-18T23:25:17.104Z,5.00
2023-04-18T23:27:43.944Z,5.67
2023-04-18T23:30:11.155Z,5.53
2023-04-18T23:32:38.018Z,5.23
2023-04-18T23:35:06.026Z,5.30
2023-04-18T23:37:37.238Z,4.83
2023-04-18T23:40:06.709Z,4.93
2023-04-18T23:42:37.006Z,5.20
2023-04-18T23:45:04.130Z,5.07
2023-04-18T23:47:30.959Z,5.60
2023-04-18T23:49:57.816Z,5.00
2023-04-18T23:52:24.601Z,5.00
2023-04-18T23:54:51.764Z,5.57
2023-04-18T23:57:23.141Z,5.23
2023-04-18T23:59:52.344Z,5.50
